Tiempo atmosférico en la estación meteorológica de Cabrales, Asturias (458 m.)



Fecha
DESCASC
Temp. máxima en grados centígrados (hora)
DESCASC
Temp. mínima en grados centígrados (hora)
DESCASC
Temp. media en grados centígrados
DESCASC
Racha de viento máxima en m/sg (hora)
DESCASC
Velocidad máxima media en intervalos de 10 minutos(hora)
DESCASC
Precipitaciones diarias en mm
DESCASC
Precipitaciones de 00:00 a 06:00 en mm
DESCASC
Precipitaciones de 06:00 a 12:00 en mm
DESCASC
Precipitaciones de 12:00 a 18:00 en mm
DESCASC
Precipitaciones de 18:00 a 24:00 en mm
DESCASC
11-12-2019 11.1 (14:40) 5.6 (09:20) 8.4 27.78 (16:50) 14.72 (17:00) 7.2 3 4 0.2 0
10-12-2019 13.3 (13:20) 3.4 (05:10) 8.4 6.39 (18:20) 5 (18:20) 0 0 0 0 0
09-12-2019 11.5 (13:20) 6.1 (23:59) 8.8 15 (14:10) 10.56 (14:10) 0.2 0.2 0 0 0
08-12-2019 12.1 (15:00) 7.4 (00:00) 9.8 11.67 (19:10) 8.06 (19:00) 6.8 0 4.8 2 0
07-12-2019 16.3 (15:20) 5.8 (00:00) 11 4.17 (16:50) 3.61 (16:50) 0 0 0 0 0
06-12-2019 11.2 (13:50) 4.1 (00:00) 7.6 5.56 (15:00) 3.89 (15:00) 0 0 0 0 0
05-12-2019 10.3 (15:00) 5.6 (00:00) 8 8.33 (08:30) 4.72 (08:20) 3.8 2.2 1.4 0 0.2
04-12-2019 9.5 (13:40) 1 (00:00) 5.3 5.56 (15:30) 4.17 (14:30) 0 0 0 0 0
03-12-2019 8.3 (14:50) 2 (00:00) 5.2 8.33 (10:50) 4.17 (10:10) 0.6 0.2 0.4 0 0
02-12-2019 7.2 (12:50) 3.9 (00:00) 5.5 8.33 (15:10) 4.72 (15:10) 28.8 5.8 16.2 6.6 0.2
01-12-2019 11.3 (13:40) 5.3 (00:00) 8.3 9.17 (19:40) 6.67 (19:20) 24.6 0 0 9.6 15
30-11-2019 15.4 (05:10) 6 (00:00) 10.7 15 (05:10) 8.89 (08:10) 6.2 0 5.6 0.6 0
29-11-2019 -- (--) -- (--) -- -- (--) -- (--) -- -- -- -- 0
28-11-2019 -- (--) -- (--) -- -- (--) -- (--) -- -- -- -- --
27-11-2019 -- (--) -- (--) -- -- (--) -- (--) -- -- -- -- --
26-11-2019 -- (--) -- (--) -- -- (--) -- (--) -- -- -- -- --
25-11-2019 -- (--) -- (--) -- -- (--) -- (--) -- -- -- -- --
24-11-2019 -- (--) -- (--) -- -- (--) -- (--) -- -- -- -- --
23-11-2019 -- (--) -- (--) -- -- (--) -- (--) -- -- -- -- --
22-11-2019 -- (--) -- (--) -- -- (--) -- (--) -- -- -- -- --
21-11-2019 -- (--) -- (--) -- -- (--) -- (--) -- -- -- -- --
20-11-2019 -- (--) -- (--) -- -- (--) -- (--) -- -- -- -- --
19-11-2019 -- (--) -- (--) -- -- (--) -- (--) -- -- -- -- --
18-11-2019 -- (--) -- (--) -- -- (--) -- (--) -- -- -- -- --
17-11-2019 -- (--) -- (--) -- -- (--) -- (--) -- -- -- -- --
16-11-2019 -- (--) -- (--) -- -- (--) -- (--) -- -- -- -- --
15-11-2019 -- (--) -- (--) -- -- (--) -- (--) -- -- -- -- --

Gráficas

Temp. máximas Temp. mínimas Temp. medias Precipitaciones Rachas de viento máximas Velocidades máximas media en intervalos de 10 minutos

Datos horarios

Fecha y hora oficial Temperatura (ºC) Velocidad del viento (km/h) Dirección del viento Racha (km/h) Dirección de racha Precipitación (mm) Presión (hPa) Tendencia (hPa) Humedad (%)
2019-12-14 23:00:00 13.9 9 Nordeste 42 Sudoeste 0 -- -- 53
2019-12-14 22:00:00 15.3 32 Sudoeste 55 Sudoeste 0 -- -- 49
2019-12-14 21:00:00 12.5 7 Oeste 13 Nordeste 0 -- -- 60
2019-12-14 20:00:00 12.6 4 Oeste 12 Oeste 0 -- -- 60
2019-12-14 19:00:00 13.3 4 Norte 44 Sudoeste 0 -- -- 57
2019-12-14 18:00:00 13.3 9 Oeste 36 Oeste 0 -- -- 59
2019-12-14 17:00:00 13.1 7 Este 14 Este 0 -- -- 58
2019-12-14 16:00:00 14.3 3 Sudeste 10 Sudeste 0 -- -- 55
2019-12-14 15:00:00 14.8 9 Sudeste 28 Sudeste 0 -- -- 58
2019-12-14 14:00:00 14.2 12 Sudeste 17 Sudeste 0 -- -- 63
2019-12-14 13:00:00 13.1 4 Sur 15 Sudeste 0 -- -- 62
2019-12-14 12:00:00 10.8 8 Sudeste 17 Este 0 -- -- 69
2019-12-14 11:00:00 9.4 5 Sudeste 16 Este 0 -- -- 78
2019-12-14 10:00:00 7.4 7 Este 13 Sudoeste 0 -- -- 83
2019-12-14 09:00:00 7.5 9 Sudeste 17 Sudeste 0 -- -- 82
2019-12-14 08:00:00 7 8 Sudoeste 11 Sudoeste 0 -- -- 89
2019-12-14 07:00:00 7.7 4 Sudeste 6 Sudeste 0 -- -- 85
2019-12-14 06:00:00 7.3 2 Sur 9 Este 0 -- -- 89
2019-12-14 05:00:00 8.2 9 Sudeste 12 Sudeste 0 -- -- 84
2019-12-14 04:00:00 8.4 7 Oeste 8 Oeste 0 -- -- 85
2019-12-14 03:00:00 8.6 8 Sudeste 10 Sudeste 0 -- -- 83
2019-12-14 02:00:00 10 0 Calma 14 Sudeste 0 -- -- 77
2019-12-14 01:00:00 9.7 7 Norte 19 Norte 0 -- -- 78
2019-12-14 00:00:00 10.3 9 Norte 24 Noroeste 0 -- -- 75
2019-12-13 23:00:00 11.3 14 Noroeste 33 Noroeste 0 -- -- 72
2019-12-13 22:00:00 11.7 18 Noroeste 35 Noroeste 0 -- -- 75
2019-12-13 21:00:00 12 22 Noroeste 43 Noroeste 0 -- -- 77
2019-12-13 20:00:00 12.6 29 Noroeste 45 Noroeste 0 -- -- 77
2019-12-13 19:00:00 13 27 Noroeste 49 Noroeste 0 -- -- 79
2019-12-13 18:00:00 14 34 Noroeste 52 Noroeste 0 -- -- 75
2019-12-13 17:00:00 14.8 27 Noroeste 45 Noroeste 0 -- -- 72
2019-12-13 16:00:00 15.4 30 Noroeste 69 Oeste 0 -- -- 70
2019-12-13 15:00:00 15.9 38 Noroeste 64 Oeste 0 -- -- 68
2019-12-13 14:00:00 15.9 39 Oeste 74 Oeste 0 -- -- 70
2019-12-13 13:00:00 16 31 Noroeste 66 Noroeste 0 -- -- 69
2019-12-13 12:00:00 15.1 32 Noroeste 64 Oeste 0 -- -- 71
2019-12-13 11:00:00 14.1 39 Noroeste 91 Oeste 0 -- -- 79
2019-12-13 10:00:00 13.9 41 Noroeste 67 Noroeste 0 -- -- 79
2019-12-13 09:00:00 12.7 31 Noroeste 77 Oeste 0.2 -- -- 88
2019-12-13 08:00:00 13.3 45 Noroeste 68 Noroeste 0 -- -- 82
2019-12-13 07:00:00 12.9 43 Noroeste 67 Noroeste 0 -- -- 86
2019-12-13 06:00:00 13.8 37 Noroeste 72 Oeste 0 -- -- 79
2019-12-13 05:00:00 13.7 43 Noroeste 67 Noroeste 0 -- -- 81
2019-12-13 04:00:00 14.3 41 Noroeste 63 Oeste 0 -- -- 79
2019-12-13 03:00:00 13.8 31 Noroeste 59 Oeste 0 -- -- 83
2019-12-13 02:00:00 12.3 33 Noroeste 59 Noroeste 0.2 -- -- 96
2019-12-13 01:00:00 12.1 42 Noroeste 67 Oeste 0.4 -- -- 98
2019-12-13 00:00:00 11.7 32 Noroeste 80 Oeste 1 -- -- 100
2019-12-12 23:00:00 11.8 36 Noroeste 54 Noroeste 1.6 -- -- 99
2019-12-12 22:00:00 11.6 33 Noroeste 50 Noroeste 1.8 -- -- 100
2019-12-12 21:00:00 11.5 31 Noroeste 45 Noroeste 2.2 -- -- 100
2019-12-12 20:00:00 11.2 30 Noroeste 60 Oeste 1.6 -- -- 100
2019-12-12 19:00:00 11.3 37 Oeste 66 Oeste 1.8 -- -- 99
2019-12-12 18:00:00 11 30 Noroeste 77 Oeste 1.8 -- -- 99
2019-12-12 17:00:00 10.1 28 Noroeste 45 Noroeste 3 -- -- 100
2019-12-12 16:00:00 9.8 27 Noroeste 42 Noroeste 1.6 -- -- 98
2019-12-12 15:00:00 9.7 24 Noroeste 42 Noroeste 1.6 -- -- 95
2019-12-12 14:00:00 9.9 32 Noroeste 74 Sudoeste 1 -- -- 87
2019-12-12 13:00:00 10.2 24 Noroeste 66 Oeste 0.4 -- -- 80
2019-12-12 12:00:00 10.2 31 Noroeste 65 Oeste 0.2 -- -- 75
2019-12-12 11:00:00 9.6 15 Noroeste 50 Oeste 0 -- -- 75
2019-12-12 10:00:00 7.7 5 Norte 28 Norte 0.4 -- -- 91
2019-12-12 09:00:00 7.9 16 Noroeste 28 Norte 0.2 -- -- 87
2019-12-12 08:00:00 8.7 13 Noroeste 33 Noroeste 0 -- -- 81
2019-12-12 07:00:00 8.5 14 Noroeste 28 Norte 0.2 -- -- 80
2019-12-12 06:00:00 8.4 14 Norte 24 Norte 0 -- -- 80
2019-12-12 05:00:00 8.5 19 Noroeste 40 Oeste 0.2 -- -- 78
2019-12-12 04:00:00 8 14 Noroeste 42 Oeste 0 -- -- 82
2019-12-12 03:00:00 8.4 16 Oeste 34 Noroeste 0 -- -- 78
2019-12-12 02:00:00 9.4 23 Noroeste 48 Oeste 0 -- -- 67
2019-12-12 01:00:00 9.4 22 Noroeste 56 Noroeste 0 -- -- 66
2019-12-12 00:00:00 9.7 37 Oeste 71 Oeste 0 -- -- 65
2019-12-11 23:00:00 9.5 46 Oeste 72 Oeste 0 -- -- 70
2019-12-11 22:00:00 8.9 27 Noroeste 46 Noroeste 0 -- -- 73
2019-12-11 21:00:00 8.9 30 Noroeste 51 Oeste 0 -- -- 71
2019-12-11 20:00:00 9.6 33 Oeste 76 Oeste 0 -- -- 65
2019-12-11 19:00:00 9.8 36 Oeste 71 Oeste 0 -- -- 63
2019-12-11 18:00:00 9.7 42 Oeste 88 Oeste 0 -- -- 62
2019-12-11 17:00:00 10.1 53 Oeste 100 Oeste 0 -- -- 58
2019-12-11 16:00:00 10.7 44 Oeste 79 Oeste 0 -- -- 54
2019-12-11 15:00:00 10.1 26 Oeste 55 Oeste 0 -- -- 51
2019-12-11 14:00:00 10.6 34 Oeste 61 Oeste 0.2 -- -- 51
2019-12-11 13:00:00 9.8 27 Oeste 55 Oeste 0 -- -- 60
2019-12-11 12:00:00 8.7 28 Oeste 54 Oeste 0 -- -- 66
2019-12-11 11:00:00 7 29 Oeste 51 Oeste 0 -- -- 81
2019-12-11 10:00:00 5.8 17 Noroeste 45 Oeste 0.6 -- -- 98
2019-12-11 09:00:00 5.9 24 Noroeste 52 Oeste 0.8 -- -- 96
2019-12-11 08:00:00 6.3 20 Noroeste 56 Oeste 1.2 -- -- 99
2019-12-11 07:00:00 7.1 34 Oeste 49 Oeste 1.4 -- -- 100
2019-12-11 06:00:00 7.4 19 Noroeste 36 Noroeste 1 -- -- 100
2019-12-11 05:00:00 7.9 27 Oeste 40 Oeste 2 -- -- 98
2019-12-11 04:00:00 9.3 22 Noroeste 35 Noroeste 0 -- -- 79
2019-12-11 03:00:00 9.6 7 Oeste 14 Oeste 0 -- -- 69
2019-12-11 02:00:00 9.6 2 Sudoeste 8 Este 0 -- -- 67
2019-12-11 01:00:00 9.8 4 Nordeste 9 Sudoeste 0 -- -- 66
2019-12-11 00:00:00 9.3 5 Sudoeste 9 Sudoeste 0 -- -- 68
2019-12-10 23:00:00 9.5 0 Calma 15 Sudeste 0 -- -- 68
2019-12-10 22:00:00 10.5 9 Sudeste 13 Sudeste 0 -- -- 62
2019-12-10 21:00:00 10.6 7 Oeste 10 Oeste 0 -- -- 61
2019-12-10 20:00:00 11.2 7 Sudeste 10 Sudeste 0 -- -- 58
2019-12-10 19:00:00 12 4 Noroeste 23 Oeste 0 -- -- 54
2019-12-10 18:00:00 11.7 16 Oeste 21 Oeste 0 -- -- 60
2019-12-10 17:00:00 11.8 3 Sudeste 8 Este 0 -- -- 57
2019-12-10 16:00:00 12.6 5 Sudeste 8 Este 0 -- -- 63
2019-12-10 15:00:00 13 0 Calma 5 Este 0 -- -- 71
2019-12-10 14:00:00 13.2 2 Sur 8 Sudeste 0 -- -- 63
2019-12-10 13:00:00 12.6 0 Calma 7 Sudoeste 0 -- -- 73
2019-12-10 12:00:00 10.3 6 Sudoeste 10 Sudoeste 0 -- -- 56
2019-12-10 11:00:00 8.9 2 Sudeste 6 Sudeste 0 -- -- 69
2019-12-10 10:00:00 6 0 Calma 6 Este 0 -- -- 81
2019-12-10 09:00:00 4.9 3 Sudoeste 6 Sur 0 -- -- 84
2019-12-10 08:00:00 4 0 Calma 13 Sudeste 0 -- -- 93
2019-12-10 07:00:00 3.8 3 Sudeste 10 Este 0 -- -- 93
2019-12-10 06:00:00 3.6 5 Este 9 Sudeste 0 -- -- 96
2019-12-10 05:00:00 3.8 12 Sudeste 15 Sudeste 0 -- -- 98
2019-12-10 04:00:00 4.5 3 Este 12 Sudeste 0 -- -- 94
2019-12-10 03:00:00 4.3 9 Sudeste 15 Sudeste 0 -- -- 97
2019-12-10 02:00:00 5 10 Sudeste 13 Sudeste 0 -- -- 98
2019-12-10 01:00:00 5.7 0 Calma 5 Este 0 -- -- 97
2019-12-10 00:00:00 6.1 4 Este 5 Este 0 -- -- 96
2019-12-09 23:00:00 6.7 2 Nordeste 5 Este 0 -- -- 95
2019-12-09 22:00:00 8.1 0 Calma 13 Noroeste 0 -- -- 91
2019-12-09 21:00:00 7.9 7 Noroeste 22 Noroeste 0 -- -- 92
2019-12-09 20:00:00 8.5 12 Noroeste 18 Oeste 0 -- -- 90
2019-12-09 19:00:00 8.9 13 Oeste 20 Oeste 0 -- -- 89
2019-12-09 18:00:00 9.5 17 Noroeste 29 Norte 0 -- -- 86
2019-12-09 17:00:00 10.3 22 Noroeste 33 Noroeste 0 -- -- 79
2019-12-09 16:00:00 10.8 21 Noroeste 35 Noroeste 0 -- -- 76
2019-12-09 15:00:00 11.4 18 Noroeste 54 Noroeste 0 -- -- 74
2019-12-09 14:00:00 11.1 35 Noroeste 50 Noroeste 0 -- -- 73
2019-12-09 13:00:00 11.1 27 Noroeste 45 Noroeste 0 -- -- 74
2019-12-09 12:00:00 11 25 Norte 48 Noroeste 0 -- -- 73
2019-12-09 11:00:00 10.2 29 Noroeste 49 Norte 0 -- -- 74
2019-12-09 10:00:00 9.4 26 Norte 42 Norte 0 -- -- 76
2019-12-09 09:00:00 9.3 25 Noroeste 41 Noroeste 0 -- -- 75
2019-12-09 08:00:00 8.8 22 Norte 36 Norte 0 -- -- 76
2019-12-09 07:00:00 8.4 20 Noroeste 43 Oeste 0 -- -- 72
2019-12-09 06:00:00 7.2 24 Noroeste 50 Noroeste 0 -- -- 74
2019-12-09 05:00:00 7 19 Noroeste 31 Oeste 0 -- -- 70
2019-12-09 04:00:00 7.9 20 Noroeste 41 Norte 0 -- -- 63
2019-12-09 03:00:00 8.5 14 Norte 23 Norte 0.2 -- -- 63
2019-12-09 02:00:00 7.4 13 Noroeste 36 Noroeste 0 -- -- 88
2019-12-09 01:00:00 7.3 13 Noroeste 30 Noroeste 0 -- -- 98
2019-12-09 00:00:00 7.4 16 Noroeste 27 Noroeste 0 -- -- 100
2019-12-08 23:00:00 7.6 4 Oeste 10 Este 0 -- -- 100
2019-12-08 22:00:00 8.2 5 Noroeste 25 Noroeste 0 -- -- 100
2019-12-08 21:00:00 8.4 15 Noroeste 26 Noroeste 0 -- -- 100
2019-12-08 20:00:00 9 14 Noroeste 42 Noroeste 0 -- -- 100
2019-12-08 19:00:00 9.2 29 Noroeste 41 Noroeste 0 -- -- 100
2019-12-08 18:00:00 9.6 19 Noroeste 36 Noroeste 0 -- -- 100
2019-12-08 17:00:00 10.2 26 Noroeste 34 Noroeste 0 -- -- 100
2019-12-08 16:00:00 10.7 26 Noroeste 41 Norte 0.6 -- -- 100
2019-12-08 15:00:00 12.1 23 Noroeste 33 Noroeste 0.2 -- -- 100
2019-12-08 14:00:00 11.8 19 Noroeste 27 Norte 0.4 -- -- 100
2019-12-08 13:00:00 11.2 12 Noroeste 21 Norte 0.8 -- -- 100
2019-12-08 12:00:00 10.7 4 Oeste 11 Noroeste 2.2 -- -- 99
2019-12-08 11:00:00 10.4 4 Norte 23 Oeste 1.8 -- -- 98
2019-12-08 10:00:00 10.6 19 Oeste 26 Oeste 0.8 -- -- 91
2019-12-08 09:00:00 10.3 4 Sudoeste 5 Oeste 0 -- -- 80
2019-12-08 08:00:00 9.8 2 Nordeste 5 Nordeste 0 -- -- 81
2019-12-08 07:00:00 9.7 3 Sudoeste 12 Este 0 -- -- 82
2019-12-08 06:00:00 9.5 0 Calma 6 Este 0 -- -- 81
2019-12-08 05:00:00 9.2 2 Sudeste 6 Este 0 -- -- 83
2019-12-08 04:00:00 8.5 3 Sudoeste 9 Sudoeste 0 -- -- 87
2019-12-08 03:00:00 8 5 Sudoeste 13 Este 0 -- -- 92
2019-12-08 02:00:00 7.8 0 Calma 5 Sudeste 0 -- -- 92
2019-12-08 01:00:00 8 0 Calma 6 Este 0 -- -- 91
2019-12-08 00:00:00 8 5 Este 7 Este 0 -- -- 92
2019-12-07 23:00:00 9 4 Sudeste 8 Este 0 -- -- 86
2019-12-07 22:00:00 9.6 3 Sudeste 10 Sudoeste 0 -- -- 84
2019-12-07 21:00:00 9.9 3 Sudeste 9 Sur 0 -- -- 83
2019-12-07 20:00:00 10.1 3 Sudeste 12 Sudeste 0 -- -- 83
2019-12-07 19:00:00 10.1 7 Sudeste 12 Sudeste 0 -- -- 82
2019-12-07 18:00:00 11.1 5 Sur 13 Sudeste 0 -- -- 76
2019-12-07 17:00:00 12.1 13 Sudeste 15 Sudeste 0 -- -- 72
2019-12-07 16:00:00 15.5 3 Noroeste 11 Oeste 0 -- -- 65
2019-12-07 15:00:00 16.1 6 Oeste 10 Sudoeste 0 -- -- 64
2019-12-07 14:00:00 14.8 2 Oeste 6 Oeste 0 -- -- 64
2019-12-07 13:00:00 12.6 6 Sudoeste 8 Sudoeste 0 -- -- 68
2019-12-07 12:00:00 13 2 Sudeste 7 Sudeste 0 -- -- 74
2019-12-07 11:00:00 9.5 0 Calma 6 Sudoeste 0 -- -- 80
2019-12-07 10:00:00 6.8 3 Sudoeste 6 Sudoeste 0 -- -- 87
2019-12-07 09:00:00 6.6 3 Sudeste 12 Sudeste 0 -- -- 89
2019-12-07 08:00:00 7 3 Sudeste 6 Sudoeste 0 -- -- 86
2019-12-07 07:00:00 6 2 Este 5 Este 0 -- -- 94
2019-12-07 06:00:00 6 2 Sudeste 4 Sudoeste 0 -- -- 94
2019-12-07 05:00:00 5.9 3 Sudoeste 6 Este 0 -- -- 97
2019-12-07 04:00:00 6.1 4 Este 6 Este 0 -- -- 97
2019-12-07 03:00:00 6 0 Calma 4 Este 0 -- -- 99
2019-12-07 02:00:00 6 0 Calma 5 Este 0 -- -- 98
2019-12-07 01:00:00 6.3 3 Sudeste 8 Sudeste 0 -- -- 98
2019-12-07 00:00:00 6.4 3 Sur 8 Sudeste 0 -- -- 97
2019-12-06 23:00:00 7 6 Sudeste 11 Sudoeste 0 -- -- 95
2019-12-06 22:00:00 7 3 Oeste 8 Sudeste 0 -- -- 95
2019-12-06 21:00:00 7.8 5 Sudeste 9 Noroeste 0 -- -- 92
2019-12-06 20:00:00 8.7 6 Noroeste 13 Noroeste 0 -- -- 87
2019-12-06 19:00:00 9.5 6 Oeste 8 Oeste 0 -- -- 84
2019-12-06 18:00:00 9.6 4 Sudoeste 14 Oeste 0 -- -- 85
2019-12-06 17:00:00 10.2 9 Oeste 13 Oeste 0 -- -- 85
2019-12-06 16:00:00 10.6 3 Oeste 18 Oeste 0 -- -- 84
2019-12-06 15:00:00 10.9 14 Oeste 20 Oeste 0 -- -- 81
2019-12-06 14:00:00 11.2 4 Sudoeste 10 Noroeste 0 -- -- 81
2019-12-06 13:00:00 9.7 5 Oeste 16 Noroeste 0 -- -- 83
2019-12-06 12:00:00 9.7 7 Sudoeste 10 Sudoeste 0 -- -- 88
2019-12-06 11:00:00 7.2 0 Calma 8 Oeste 0 -- -- 100
2019-12-06 10:00:00 5.4 4 Oeste 5 Oeste 0 -- -- 100
2019-12-06 09:00:00 4.7 4 Oeste 6 Sudoeste 0 -- -- 100
2019-12-06 08:00:00 4.3 4 Sudoeste 5 Sudoeste 0 -- -- 100
2019-12-06 07:00:00 4.2 3 Este 8 Sudeste 0 -- -- 100
2019-12-06 06:00:00 4.9 6 Sudeste 10 Sudeste 0 -- -- 100
2019-12-06 05:00:00 4.7 5 Oeste 8 Este 0 -- -- 100
2019-12-06 04:00:00 5 6 Este 8 Este 0 -- -- 100
2019-12-06 03:00:00 5.6 0 Calma 6 Oeste 0 -- -- 100
2019-12-06 02:00:00 5.6 6 Oeste 7 Oeste 0 -- -- 100
2019-12-06 01:00:00 5.3 5 Oeste 10 Sudeste 0 -- -- 100
2019-12-06 00:00:00 6.6 5 Oeste 8 Oeste 0.2 -- -- 100
2019-12-05 23:00:00 6.7 3 Sudoeste 10 Sudeste 0 -- -- 100
2019-12-05 22:00:00 7.4 0 Calma 19 Este 0 -- -- 100
2019-12-05 21:00:00 7.5 14 Sudeste 20 Sudeste 0 -- -- 100
2019-12-05 20:00:00 7.5 4 Sudeste 21 Este 0 -- -- 100
2019-12-05 19:00:00 7.6 12 Este 23 Este 0 -- -- 99
2019-12-05 18:00:00 8.4 4 Este 17 Sudeste 0 -- -- 95
2019-12-05 17:00:00 9.2 11 Sudeste 21 Este 0 -- -- 93
2019-12-05 16:00:00 9.7 7 Sudeste 15 Sudeste 0 -- -- 93
2019-12-05 15:00:00 10.3 2 Sudeste 9 Este 0 -- -- 94
2019-12-05 14:00:00 9.5 6 Sudeste 20 Este 0 -- -- 95
2019-12-05 13:00:00 8.6 12 Sudeste 20 Este 0 -- -- 100
2019-12-05 12:00:00 8 12 Sudeste 21 Sudeste 0 -- -- 100
2019-12-05 11:00:00 7.8 7 Este 21 Sudeste 0 -- -- 100
2019-12-05 10:00:00 7 14 Sudeste 22 Sudeste 0 -- -- 100
2019-12-05 09:00:00 6.6 15 Sudeste 30 Este 0.2 -- -- 100
2019-12-05 08:00:00 6 4 Sudeste 10 Sudeste 0.6 -- -- 100
2019-12-05 07:00:00 5.9 0 Calma 5 Noroeste 0.6 -- -- 100
2019-12-05 06:00:00 5.8 4 Noroeste 6 Oeste 0.2 -- -- 100
2019-12-05 05:00:00 5.7 4 Noroeste 6 Noroeste 0.6 -- -- 100
2019-12-05 04:00:00 5.6 3 Oeste 6 Oeste 0.6 -- -- 100
2019-12-05 03:00:00 5.6 0 Calma 4 Noroeste 0.4 -- -- 100
2019-12-05 02:00:00 5.6 3 Oeste 7 Oeste 0.4 -- -- 99
2019-12-05 01:00:00 6 6 Noroeste 13 Oeste 0 -- -- 94
2019-12-05 00:00:00 6.6 11 Oeste 14 Sudoeste 0 -- -- 86
2019-12-04 23:00:00 5.4 5 Nordeste 15 Nordeste 0 -- -- 91
2019-12-04 22:00:00 6 3 Oeste 10 Sudoeste 0 -- -- 81
2019-12-04 21:00:00 5.2 3 Norte 7 Sudeste 0 -- -- 87
2019-12-04 20:00:00 5.6 0 Calma 4 Este 0 -- -- 82
2019-12-04 19:00:00 6 5 Noroeste 11 Noroeste 0 -- -- 82
2019-12-04 18:00:00 6.3 10 Noroeste 12 Oeste 0 -- -- 78
2019-12-04 17:00:00 7.2 7 Oeste 15 Oeste 0 -- -- 73
2019-12-04 16:00:00 7.7 9 Noroeste 20 Noroeste 0 -- -- 76
2019-12-04 15:00:00 8.7 12 Noroeste 19 Noroeste 0 -- -- 67
2019-12-04 14:00:00 8.5 13 Noroeste 19 Noroeste 0 -- -- 62
2019-12-04 13:00:00 8.5 5 Noroeste 12 Noroeste 0 -- -- 63
2019-12-04 12:00:00 7.9 4 Oeste 7 Oeste 0 -- -- 65
2019-12-04 11:00:00 6.1 2 Sudoeste 6 Noroeste 0 -- -- 73
2019-12-04 10:00:00 3.4 0 Calma 4 Oeste 0 -- -- 77
2019-12-04 09:00:00 2.3 2 Oeste 4 Oeste 0 -- -- 80
2019-12-04 08:00:00 2.1 0 Calma 4 Oeste 0 -- -- 85
2019-12-04 07:00:00 1.9 3 Noroeste 4 Oeste 0 -- -- 87
2019-12-04 06:00:00 1.7 3 Noroeste 5 Oeste 0 -- -- 90
2019-12-04 05:00:00 1.1 0 Calma 6 Oeste 0 -- -- 94
2019-12-04 04:00:00 1 5 Oeste 7 Oeste 0 -- -- 96
2019-12-04 03:00:00 1.5 0 Calma 8 Oeste 0 -- -- 95
2019-12-04 02:00:00 1.6 7 Oeste 9 Oeste 0 -- -- 98
2019-12-04 01:00:00 1.4 0 Calma 6 Nordeste 0 -- -- 98
2019-12-04 00:00:00 2 0 Calma 9 Sudeste 0 -- -- 96
2019-12-03 23:00:00 2.8 5 Sudeste 10 Sudeste 0 -- -- 91
2019-12-03 22:00:00 3.5 7 Sudeste 13 Sudeste 0 -- -- 94
2019-12-03 21:00:00 4.1 3 Sudeste 5 Sudeste 0 -- -- 93
2019-12-03 20:00:00 4.3 2 Sur 7 Sudeste 0 -- -- 92
2019-12-03 19:00:00 4.3 8 Sudeste 12 Este 0 -- -- 94
2019-12-03 18:00:00 4.4 6 Sudeste 10 Sudeste 0 -- -- 89
2019-12-03 17:00:00 5.4 8 Sudeste 15 Sudeste 0 -- -- 83
2019-12-03 16:00:00 8.1 8 Sudeste 21 Sudeste 0 -- -- 75
2019-12-03 15:00:00 8.3 10 Sudeste 20 Sudeste 0 -- -- 76
2019-12-03 14:00:00 7.1 11 Sudeste 22 Sudeste 0 -- -- 83
2019-12-03 13:00:00 7.1 11 Sudeste 22 Sudeste 0 -- -- 85
2019-12-03 12:00:00 7.5 13 Sudeste 28 Este 0 -- -- 90
2019-12-03 11:00:00 5.5 12 Este 30 Este 0 -- -- 100
2019-12-03 10:00:00 3.6 14 Sudeste 23 Este 0 -- -- 100
2019-12-03 09:00:00 2.8 13 Este 19 Sudeste 0 -- -- 100
2019-12-03 08:00:00 3 12 Este 20 Este 0 -- -- 100
2019-12-03 07:00:00 3.8 12 Sudeste 18 Este 0.4 -- -- 100
2019-12-03 06:00:00 3.9 11 Sudeste 18 Sudeste 0 -- -- 100
2019-12-03 05:00:00 3.8 11 Sudeste 16 Sudeste 0.2 -- -- 100
2019-12-03 04:00:00 3.9 10 Sudeste 14 Sudeste 0 -- -- 100
2019-12-03 03:00:00 3.5 11 Sudeste 19 Sudeste 0 -- -- 100
2019-12-03 02:00:00 3.1 9 Este 15 Este 0 -- -- 100
2019-12-03 01:00:00 3.6 10 Sudeste 18 Sudeste 0 -- -- 100
2019-12-03 00:00:00 3.9 9 Sudeste 24 Este 0 -- -- 100
2019-12-02 23:00:00 4 14 Este 23 Este 0 -- -- 100
2019-12-02 22:00:00 4.4 13 Sudeste 22 Este 0.2 -- -- 100
2019-12-02 21:00:00 4.6 14 Este 22 Sudeste 0 -- -- 100
2019-12-02 20:00:00 4.8 13 Sudeste 23 Este 0 -- -- 100
2019-12-02 19:00:00 5 7 Sudeste 18 Sudeste 0 -- -- 100
2019-12-02 18:00:00 5.3 12 Sudeste 26 Este 0.2 -- -- 100
2019-12-02 17:00:00 5.8 12 Sudeste 22 Sudeste 0.8 -- -- 100
2019-12-02 16:00:00 6 11 Sudeste 30 Este 1 -- -- 100
2019-12-02 15:00:00 6.5 14 Este 27 Este 1.2 -- -- 100
2019-12-02 14:00:00 6.7 14 Sudeste 23 Este 2.2 -- -- 100
2019-12-02 13:00:00 7 6 Sudeste 15 Este 1.2 -- -- 100
2019-12-02 12:00:00 6.9 12 Este 22 Este 1.8 -- -- 100
2019-12-02 11:00:00 6.6 8 Este 24 Sudeste 2.6 -- -- 100
2019-12-02 10:00:00 6 2 Noroeste 13 Sudoeste 1.6 -- -- 100
2019-12-02 09:00:00 5.5 4 Oeste 9 Norte 4.6 -- -- 100
2019-12-02 08:00:00 5.5 0 Calma 12 Sudoeste 3.8 -- -- 100
2019-12-02 07:00:00 5.5 7 Sudoeste 12 Sudoeste 1.8 -- -- 100
2019-12-02 06:00:00 5.4 2 Este 14 Sudoeste 3.4 -- -- 100
2019-12-02 05:00:00 5.5 2 Noroeste 9 Sudeste 1.2 -- -- 100
2019-12-02 04:00:00 5.5 5 Oeste 12 Oeste 0.4 -- -- 100
2019-12-02 03:00:00 5.5 6 Oeste 8 Oeste 0 -- -- 100
2019-12-02 02:00:00 5.6 4 Sudoeste 5 Sudoeste 0 -- -- 100
2019-12-02 01:00:00 5.7 0 Calma 9 Oeste 0.8 -- -- 100
2019-12-02 00:00:00 6 8 Oeste 22 Oeste 3.2 -- -- 100
2019-12-01 23:00:00 6.4 15 Oeste 26 Oeste 1.6 -- -- 100
2019-12-01 22:00:00 6.4 12 Oeste 24 Oeste 2 -- -- 100
2019-12-01 21:00:00 6.6 15 Oeste 27 Oeste 2 -- -- 100
2019-12-01 20:00:00 6.7 16 Oeste 33 Oeste 2 -- -- 100
2019-12-01 19:00:00 6.4 12 Oeste 22 Oeste 4.2 -- -- 100
2019-12-01 18:00:00 7.1 5 Norte 11 Norte 1.6 -- -- 100
2019-12-01 17:00:00 7.5 5 Noroeste 10 Noroeste 0.2 -- -- 99
2019-12-01 16:00:00 7.2 3 Nordeste 10 Nordeste 2.8 -- -- 99
2019-12-01 15:00:00 7.3 8 Oeste 30 Norte 4.8 -- -- 97
2019-12-01 14:00:00 10.8 6 Norte 8 Norte 0.2 -- -- 89
2019-12-01 13:00:00 10.4 4 Nordeste 14 Oeste 0 -- -- 93
2019-12-01 12:00:00 9.2 10 Oeste 16 Sudoeste 0 -- -- 91
2019-12-01 11:00:00 8.6 2 Noroeste 6 Oeste 0 -- -- 96
2019-12-01 10:00:00 7.3 6 Oeste 9 Nordeste 0 -- -- 96
2019-12-01 09:00:00 7 8 Nordeste 10 Nordeste 0 -- -- 95
2019-12-01 08:00:00 7.6 6 Sudoeste 9 Sudoeste 0 -- -- 88
2019-12-01 07:00:00 7.6 5 Sur 19 Sur 0 -- -- 87
2019-12-01 06:00:00 8 9 Sudeste 24 Sudeste 0 -- -- 84
2019-12-01 05:00:00 7.9 8 Sudeste 20 Sur 0 -- -- 84
2019-12-01 04:00:00 7.1 9 Sudeste 17 Sur 0 -- -- 86
2019-12-01 03:00:00 6.4 7 Sudeste 14 Sudeste 0 -- -- 96
2019-12-01 02:00:00 6.3 9 Sudeste 15 Sudeste 0 -- -- 100
2019-12-01 01:00:00 5.3 5 Sudeste 11 Este 0 -- -- 100
2019-12-01 00:00:00 6 0 Calma 6 Sudoeste 0 -- -- 100
2019-11-30 23:00:00 6.3 4 Este 6 Este 0 -- -- 100
2019-11-30 22:00:00 6.6 3 Sur 15 Sudeste 0 -- -- 100
2019-11-30 21:00:00 7 10 Sudeste 15 Sudeste 0 -- -- 99
2019-11-30 20:00:00 7.5 11 Sudeste 17 Este 0 -- -- 97
2019-11-30 19:00:00 8.4 6 Sudeste 13 Sudeste 0 -- -- 95
2019-11-30 18:00:00 9.1 2 Sur 8 Sur 0 -- -- 90
2019-11-30 17:00:00 9.6 4 Noroeste 8 Noroeste 0 -- -- 91
2019-11-30 16:00:00 10.5 2 Sudoeste 9 Sudoeste 0 -- -- 86
2019-11-30 15:00:00 10.6 3 Noroeste 11 Noroeste 0 -- -- 91
2019-11-30 14:00:00 9.6 5 Nordeste 35 Oeste 0 -- -- 96
2019-11-30 13:00:00 9.5 17 Oeste 33 Oeste 0.6 -- -- 98
2019-11-30 12:00:00 9.4 5 Norte 12 Norte 1.2 -- -- 100
2019-11-30 11:00:00 9.3 6 Norte 34 Oeste 0.8 -- -- 99
2019-11-30 10:00:00 9.3 31 Oeste 46 Oeste 2.2 -- -- 99
2019-11-30 09:00:00 10.5 21 Noroeste 43 Oeste 1.4 -- -- 98
2019-11-30 08:00:00 12.4 27 Noroeste 41 Oeste 0 -- -- 87
2019-11-30 07:00:00 14.8 19 Oeste 27 Oeste 0 -- -- 65
2019-11-30 06:00:00 15 6 Noroeste 54 Sudoeste 0 -- -- 65
2019-11-30 05:00:00 14.5 17 Sudoeste 52 Sudoeste 0 -- -- 69
2019-11-30 04:00:00 14 20 Sur 40 Sur 0 -- -- 69
2019-11-30 03:00:00 9.5 7 Sudeste 13 Sudeste 0 -- -- 80
2019-11-30 02:00:00 8.6 6 Sudeste 12 Sudeste 0 -- -- 91
2019-11-30 01:00:00 7.8 9 Sudeste 16 Este 0 -- -- 95
2019-11-30 00:00:00 8 10 Sudeste 18 Este 0 -- -- 98
2019-11-29 23:00:00 7.9 8 Sudeste 12 Sudeste 0 -- -- 94
2019-11-29 22:00:00 8.4 5 Este 11 Sudeste 0 -- -- 96
2019-11-29 21:00:00 8.9 6 Sudeste 13 Sudeste 0 -- -- 93
2019-11-29 20:00:00 9.4 8 Sudeste 11 Sudeste 0 -- -- 95
2019-11-29 19:00:00 9.5 9 Sudeste 15 Sudeste 0 -- -- 94
2019-11-29 18:00:00 10.5 9 Este 21 Sudeste 0 -- -- 90
2019-11-29 17:00:00 12 14 Sudeste 19 Sudeste 0 -- -- 82
2019-11-29 16:00:00 14.7 9 Sudeste -- -- -- -- -- 70
2019-11-29 15:00:00 -- -- -- -- -- -- -- -- --
2019-11-29 14:00:00 15.2 5 Sudeste -- -- -- -- -- 72
2019-11-29 13:00:00 -- -- -- -- -- -- -- -- --
2019-11-29 12:00:00 -- -- -- -- -- -- -- -- --
2019-11-29 11:00:00 -- -- -- -- -- -- -- -- --
2019-11-29 10:00:00 -- -- -- -- -- -- -- -- --
2019-11-29 09:00:00 -- -- -- -- -- -- -- -- --
2019-11-29 08:00:00 -- -- -- -- -- -- -- -- --
2019-11-29 07:00:00 -- -- -- -- -- -- -- -- --
2019-11-29 06:00:00 -- -- -- -- -- -- -- -- --
2019-11-29 05:00:00 -- -- -- -- -- -- -- -- --
2019-11-29 04:00:00 -- -- -- -- -- -- -- -- --
2019-11-29 03:00:00 -- -- -- -- -- -- -- -- --
2019-11-29 02:00:00 -- -- -- -- -- -- -- -- --
2019-11-29 01:00:00 -- -- -- -- -- -- -- -- --
2019-11-29 00:00:00 -- -- -- -- -- -- -- -- --
2019-11-28 23:00:00 -- -- -- -- -- -- -- -- --
2019-11-28 22:00:00 -- -- -- -- -- -- -- -- --
2019-11-28 21:00:00 -- -- -- -- -- -- -- -- --
2019-11-28 20:00:00 -- -- -- -- -- -- -- -- --
2019-11-28 19:00:00 -- -- -- -- -- -- -- -- --
2019-11-28 18:00:00 -- -- -- -- -- -- -- -- --
2019-11-28 17:00:00 -- -- -- -- -- -- -- -- --
2019-11-28 16:00:00 -- -- -- -- -- -- -- -- --
2019-11-28 15:00:00 -- -- -- -- -- -- -- -- --
2019-11-28 14:00:00 -- -- -- -- -- -- -- -- --
2019-11-28 13:00:00 -- -- -- -- -- -- -- -- --
2019-11-28 12:00:00 -- -- -- -- -- -- -- -- --
2019-11-28 11:00:00 -- -- -- -- -- -- -- -- --
2019-11-28 10:00:00 -- -- -- -- -- -- -- -- --
2019-11-28 09:00:00 -- -- -- -- -- -- -- -- --
2019-11-28 08:00:00 -- -- -- -- -- -- -- -- --
2019-11-28 07:00:00 -- -- -- -- -- -- -- -- --
2019-11-28 06:00:00 -- -- -- -- -- -- -- -- --
2019-11-28 05:00:00 -- -- -- -- -- -- -- -- --
2019-11-28 04:00:00 -- -- -- -- -- -- -- -- --
2019-11-28 03:00:00 -- -- -- -- -- -- -- -- --
2019-11-28 02:00:00 -- -- -- -- -- -- -- -- --
2019-11-28 01:00:00 -- -- -- -- -- -- -- -- --
2019-11-28 00:00:00 -- -- -- -- -- -- -- -- --
2019-11-27 23:00:00 -- -- -- -- -- -- -- -- --
2019-11-27 22:00:00 -- -- -- -- -- -- -- -- --
2019-11-27 21:00:00 -- -- -- -- -- -- -- -- --
2019-11-27 20:00:00 -- -- -- -- -- -- -- -- --
2019-11-27 19:00:00 -- -- -- -- -- -- -- -- --
2019-11-27 18:00:00 -- -- -- -- -- -- -- -- --
2019-11-27 17:00:00 -- -- -- -- -- -- -- -- --
2019-11-27 16:00:00 -- -- -- -- -- -- -- -- --
2019-11-27 15:00:00 -- -- -- -- -- -- -- -- --
2019-11-27 14:00:00 -- -- -- -- -- -- -- -- --
2019-11-27 06:00:00 -- -- -- -- -- -- -- -- --
2019-11-27 05:00:00 -- -- -- -- -- -- -- -- --
2019-11-27 04:00:00 -- -- -- -- -- -- -- -- --
2019-11-27 03:00:00 -- -- -- -- -- -- -- -- --
2019-11-27 02:00:00 -- -- -- -- -- -- -- -- --
2019-11-27 01:00:00 -- -- -- -- -- -- -- -- --
2019-11-27 00:00:00 -- -- -- -- -- -- -- -- --
2019-11-26 23:00:00 -- -- -- -- -- -- -- -- --
2019-11-26 22:00:00 -- -- -- -- -- -- -- -- --
2019-11-26 21:00:00 -- -- -- -- -- -- -- -- --
2019-11-26 20:00:00 -- -- -- -- -- -- -- -- --
2019-11-26 19:00:00 -- -- -- -- -- -- -- -- --
2019-11-26 18:00:00 -- -- -- -- -- -- -- -- --
2019-11-26 17:00:00 -- -- -- -- -- -- -- -- --
2019-11-26 16:00:00 -- -- -- -- -- -- -- -- --
2019-11-26 15:00:00 -- -- -- -- -- -- -- -- --
2019-11-26 14:00:00 -- -- -- -- -- -- -- -- --
2019-11-26 13:00:00 -- -- -- -- -- -- -- -- --
2019-11-26 12:00:00 -- -- -- -- -- -- -- -- --
2019-11-26 11:00:00 -- -- -- -- -- -- -- -- --
2019-11-26 10:00:00 -- -- -- -- -- -- -- -- --
2019-11-26 09:00:00 -- -- -- -- -- -- -- -- --
2019-11-26 08:00:00 -- -- -- -- -- -- -- -- --
2019-11-26 07:00:00 -- -- -- -- -- -- -- -- --
2019-11-26 06:00:00 -- -- -- -- -- -- -- -- --
2019-11-26 05:00:00 -- -- -- -- -- -- -- -- --
2019-11-26 04:00:00 -- -- -- -- -- -- -- -- --
2019-11-26 03:00:00 -- -- -- -- -- -- -- -- --
2019-11-26 02:00:00 -- -- -- -- -- -- -- -- --
2019-11-26 01:00:00 -- -- -- -- -- -- -- -- --
2019-11-26 00:00:00 -- -- -- -- -- -- -- -- --
2019-11-25 23:00:00 -- -- -- -- -- -- -- -- --
2019-11-25 22:00:00 -- -- -- -- -- -- -- -- --
2019-11-25 21:00:00 -- -- -- -- -- -- -- -- --
2019-11-25 20:00:00 -- -- -- -- -- -- -- -- --
2019-11-25 19:00:00 -- -- -- -- -- -- -- -- --
2019-11-25 18:00:00 -- -- -- -- -- -- -- -- --
2019-11-25 17:00:00 -- -- -- -- -- -- -- -- --
2019-11-25 16:00:00 -- -- -- -- -- -- -- -- --
2019-11-25 15:00:00 -- -- -- -- -- -- -- -- --
2019-11-25 14:00:00 -- -- -- -- -- -- -- -- --
2019-11-25 13:00:00 -- -- -- -- -- -- -- -- --
2019-11-25 12:00:00 -- -- -- -- -- -- -- -- --
2019-11-25 11:00:00 -- -- -- -- -- -- -- -- --
2019-11-25 10:00:00 -- -- -- -- -- -- -- -- --
2019-11-25 09:00:00 -- -- -- -- -- -- -- -- --
2019-11-25 08:00:00 -- -- -- -- -- -- -- -- --
2019-11-25 07:00:00 -- -- -- -- -- -- -- -- --
2019-11-25 06:00:00 -- -- -- -- -- -- -- -- --
2019-11-25 05:00:00 -- -- -- -- -- -- -- -- --
2019-11-25 04:00:00 -- -- -- -- -- -- -- -- --
2019-11-25 03:00:00 -- -- -- -- -- -- -- -- --
2019-11-25 02:00:00 -- -- -- -- -- -- -- -- --
2019-11-25 01:00:00 -- -- -- -- -- -- -- -- --
2019-11-25 00:00:00 -- -- -- -- -- -- -- -- --
2019-11-24 23:00:00 -- -- -- -- -- -- -- -- --
2019-11-24 22:00:00 -- -- -- -- -- -- -- -- --
2019-11-24 21:00:00 -- -- -- -- -- -- -- -- --
2019-11-24 20:00:00 -- -- -- -- -- -- -- -- --
2019-11-24 19:00:00 -- -- -- -- -- -- -- -- --
2019-11-24 18:00:00 -- -- -- -- -- -- -- -- --
2019-11-24 17:00:00 -- -- -- -- -- -- -- -- --
2019-11-24 16:00:00 -- -- -- -- -- -- -- -- --
2019-11-24 15:00:00 -- -- -- -- -- -- -- -- --
2019-11-24 14:00:00 -- -- -- -- -- -- -- -- --
2019-11-24 13:00:00 -- -- -- -- -- -- -- -- --
2019-11-24 12:00:00 -- -- -- -- -- -- -- -- --
2019-11-24 11:00:00 -- -- -- -- -- -- -- -- --
2019-11-24 10:00:00 -- -- -- -- -- -- -- -- --
2019-11-24 09:00:00 -- -- -- -- -- -- -- -- --
2019-11-24 08:00:00 -- -- -- -- -- -- -- -- --
2019-11-24 07:00:00 -- -- -- -- -- -- -- -- --
2019-11-24 06:00:00 -- -- -- -- -- -- -- -- --
2019-11-24 05:00:00 -- -- -- -- -- -- -- -- --
2019-11-24 04:00:00 -- -- -- -- -- -- -- -- --
2019-11-24 03:00:00 -- -- -- -- -- -- -- -- --
2019-11-24 02:00:00 -- -- -- -- -- -- -- -- --
2019-11-24 01:00:00 -- -- -- -- -- -- -- -- --
2019-11-24 00:00:00 -- -- -- -- -- -- -- -- --
2019-11-23 23:00:00 -- -- -- -- -- -- -- -- --
2019-11-23 22:00:00 -- -- -- -- -- -- -- -- --
2019-11-23 21:00:00 -- -- -- -- -- -- -- -- --
2019-11-23 20:00:00 -- -- -- -- -- -- -- -- --
2019-11-23 19:00:00 -- -- -- -- -- -- -- -- --
2019-11-23 18:00:00 -- -- -- -- -- -- -- -- --
2019-11-23 17:00:00 -- -- -- -- -- -- -- -- --
2019-11-23 16:00:00 -- -- -- -- -- -- -- -- --
2019-11-23 15:00:00 -- -- -- -- -- -- -- -- --
2019-11-23 14:00:00 -- -- -- -- -- -- -- -- --
2019-11-23 13:00:00 -- -- -- -- -- -- -- -- --
2019-11-23 12:00:00 -- -- -- -- -- -- -- -- --
2019-11-23 11:00:00 -- -- -- -- -- -- -- -- --
2019-11-23 10:00:00 -- -- -- -- -- -- -- -- --
2019-11-23 09:00:00 -- -- -- -- -- -- -- -- --
2019-11-23 08:00:00 -- -- -- -- -- -- -- -- --
2019-11-23 07:00:00 -- -- -- -- -- -- -- -- --
2019-11-23 06:00:00 -- -- -- -- -- -- -- -- --
2019-11-23 05:00:00 -- -- -- -- -- -- -- -- --
2019-11-23 04:00:00 -- -- -- -- -- -- -- -- --
2019-11-23 03:00:00 -- -- -- -- -- -- -- -- --
2019-11-23 02:00:00 -- -- -- -- -- -- -- -- --
2019-11-23 01:00:00 -- -- -- -- -- -- -- -- --
2019-11-23 00:00:00 -- -- -- -- -- -- -- -- --
2019-11-22 23:00:00 -- -- -- -- -- -- -- -- --
2019-11-22 22:00:00 -- -- -- -- -- -- -- -- --
2019-11-22 21:00:00 -- -- -- -- -- -- -- -- --
2019-11-22 20:00:00 -- -- -- -- -- -- -- -- --
2019-11-22 19:00:00 -- -- -- -- -- -- -- -- --
2019-11-22 18:00:00 -- -- -- -- -- -- -- -- --
2019-11-22 17:00:00 -- -- -- -- -- -- -- -- --
2019-11-22 16:00:00 -- -- -- -- -- -- -- -- --
2019-11-22 15:00:00 -- -- -- -- -- -- -- -- --
2019-11-22 14:00:00 -- -- -- -- -- -- -- -- --
2019-11-22 13:00:00 -- -- -- -- -- -- -- -- --
2019-11-22 12:00:00 -- -- -- -- -- -- -- -- --
2019-11-22 11:00:00 -- -- -- -- -- -- -- -- --
2019-11-22 10:00:00 -- -- -- -- -- -- -- -- --
2019-11-22 09:00:00 -- -- -- -- -- -- -- -- --
2019-11-22 08:00:00 -- -- -- -- -- -- -- -- --
2019-11-22 07:00:00 -- -- -- -- -- -- -- -- --
2019-11-22 06:00:00 -- -- -- -- -- -- -- -- --
2019-11-22 05:00:00 -- -- -- -- -- -- -- -- --
2019-11-22 04:00:00 -- -- -- -- -- -- -- -- --
2019-11-22 03:00:00 -- -- -- -- -- -- -- -- --
2019-11-22 02:00:00 -- -- -- -- -- -- -- -- --
2019-11-22 01:00:00 -- -- -- -- -- -- -- -- --
2019-11-22 00:00:00 -- -- -- -- -- -- -- -- --
2019-11-21 23:00:00 -- -- -- -- -- -- -- -- --
2019-11-21 22:00:00 -- -- -- -- -- -- -- -- --
2019-11-21 21:00:00 -- -- -- -- -- -- -- -- --
2019-11-21 20:00:00 -- -- -- -- -- -- -- -- --
2019-11-21 19:00:00 -- -- -- -- -- -- -- -- --
2019-11-21 18:00:00 -- -- -- -- -- -- -- -- --
2019-11-21 17:00:00 -- -- -- -- -- -- -- -- --
2019-11-21 16:00:00 -- -- -- -- -- -- -- -- --
2019-11-21 15:00:00 -- -- -- -- -- -- -- -- --
2019-11-21 14:00:00 -- -- -- -- -- -- -- -- --
2019-11-21 13:00:00 -- -- -- -- -- -- -- -- --
2019-11-21 12:00:00 -- -- -- -- -- -- -- -- --
2019-11-21 11:00:00 -- -- -- -- -- -- -- -- --
2019-11-21 10:00:00 -- -- -- -- -- -- -- -- --
2019-11-21 09:00:00 -- -- -- -- -- -- -- -- --
2019-11-21 08:00:00 -- -- -- -- -- -- -- -- --
2019-11-21 07:00:00 -- -- -- -- -- -- -- -- --
2019-11-21 06:00:00 -- -- -- -- -- -- -- -- --
2019-11-21 05:00:00 -- -- -- -- -- -- -- -- --
2019-11-21 04:00:00 -- -- -- -- -- -- -- -- --
2019-11-21 03:00:00 -- -- -- -- -- -- -- -- --
2019-11-21 02:00:00 -- -- -- -- -- -- -- -- --
2019-11-21 01:00:00 -- -- -- -- -- -- -- -- --
2019-11-21 00:00:00 -- -- -- -- -- -- -- -- --
2019-11-20 23:00:00 -- -- -- -- -- -- -- -- --
2019-11-20 22:00:00 -- -- -- -- -- -- -- -- --
2019-11-20 21:00:00 -- -- -- -- -- -- -- -- --
2019-11-20 20:00:00 -- -- -- -- -- -- -- -- --
2019-11-20 19:00:00 -- -- -- -- -- -- -- -- --
2019-11-20 18:00:00 -- -- -- -- -- -- -- -- --
2019-11-20 17:00:00 -- -- -- -- -- -- -- -- --
2019-11-20 16:00:00 -- -- -- -- -- -- -- -- --
2019-11-20 15:00:00 -- -- -- -- -- -- -- -- --
2019-11-20 14:00:00 -- -- -- -- -- -- -- -- --
2019-11-20 13:00:00 -- -- -- -- -- -- -- -- --
2019-11-20 12:00:00 -- -- -- -- -- -- -- -- --
2019-11-20 11:00:00 -- -- -- -- -- -- -- -- --
2019-11-20 10:00:00 -- -- -- -- -- -- -- -- --
2019-11-20 09:00:00 -- -- -- -- -- -- -- -- --
2019-11-20 08:00:00 -- -- -- -- -- -- -- -- --
2019-11-20 07:00:00 -- -- -- -- -- -- -- -- --
2019-11-20 06:00:00 -- -- -- -- -- -- -- -- --
2019-11-20 05:00:00 -- -- -- -- -- -- -- -- --
2019-11-20 04:00:00 -- -- -- -- -- -- -- -- --
2019-11-20 03:00:00 -- -- -- -- -- -- -- -- --
2019-11-20 02:00:00 -- -- -- -- -- -- -- -- --
2019-11-20 01:00:00 -- -- -- -- -- -- -- -- --
2019-11-20 00:00:00 -- -- -- -- -- -- -- -- --
2019-11-19 23:00:00 -- -- -- -- -- -- -- -- --
2019-11-19 22:00:00 -- -- -- -- -- -- -- -- --
2019-11-19 21:00:00 -- -- -- -- -- -- -- -- --
2019-11-19 20:00:00 -- -- -- -- -- -- -- -- --
2019-11-19 19:00:00 -- -- -- -- -- -- -- -- --
2019-11-19 18:00:00 -- -- -- -- -- -- -- -- --
2019-11-19 17:00:00 -- -- -- -- -- -- -- -- --
2019-11-19 16:00:00 -- -- -- -- -- -- -- -- --
2019-11-19 15:00:00 -- -- -- -- -- -- -- -- --
2019-11-19 14:00:00 -- -- -- -- -- -- -- -- --
2019-11-19 13:00:00 -- -- -- -- -- -- -- -- --
2019-11-19 12:00:00 -- -- -- -- -- -- -- -- --
2019-11-19 11:00:00 -- -- -- -- -- -- -- -- --
2019-11-19 10:00:00 -- -- -- -- -- -- -- -- --
2019-11-19 09:00:00 -- -- -- -- -- -- -- -- --
2019-11-19 08:00:00 -- -- -- -- -- -- -- -- --
2019-11-19 07:00:00 -- -- -- -- -- -- -- -- --
2019-11-19 06:00:00 -- -- -- -- -- -- -- -- --
2019-11-19 05:00:00 -- -- -- -- -- -- -- -- --
2019-11-19 04:00:00 -- -- -- -- -- -- -- -- --
2019-11-19 03:00:00 -- -- -- -- -- -- -- -- --
2019-11-19 02:00:00 -- -- -- -- -- -- -- -- --
2019-11-19 01:00:00 -- -- -- -- -- -- -- -- --
2019-11-19 00:00:00 -- -- -- -- -- -- -- -- --
2019-11-18 23:00:00 -- -- -- -- -- -- -- -- --
2019-11-18 22:00:00 -- -- -- -- -- -- -- -- --
2019-11-18 21:00:00 -- -- -- -- -- -- -- -- --
2019-11-18 20:00:00 -- -- -- -- -- -- -- -- --
2019-11-18 19:00:00 -- -- -- -- -- -- -- -- --
2019-11-18 18:00:00 -- -- -- -- -- -- -- -- --
2019-11-18 17:00:00 -- -- -- -- -- -- -- -- --
2019-11-18 16:00:00 -- -- -- -- -- -- -- -- --
2019-11-18 15:00:00 -- -- -- -- -- -- -- -- --
2019-11-18 14:00:00 -- -- -- -- -- -- -- -- --
2019-11-18 13:00:00 -- -- -- -- -- -- -- -- --
2019-11-18 12:00:00 -- -- -- -- -- -- -- -- --
2019-11-18 11:00:00 -- -- -- -- -- -- -- -- --
2019-11-18 10:00:00 -- -- -- -- -- -- -- -- --
2019-11-18 09:00:00 -- -- -- -- -- -- -- -- --
2019-11-18 08:00:00 -- -- -- -- -- -- -- -- --
2019-11-18 07:00:00 -- -- -- -- -- -- -- -- --
2019-11-18 06:00:00 -- -- -- -- -- -- -- -- --
2019-11-18 05:00:00 -- -- -- -- -- -- -- -- --
2019-11-18 04:00:00 -- -- -- -- -- -- -- -- --
2019-11-18 03:00:00 -- -- -- -- -- -- -- -- --
2019-11-18 02:00:00 -- -- -- -- -- -- -- -- --
2019-11-18 01:00:00 -- -- -- -- -- -- -- -- --
2019-11-18 00:00:00 -- -- -- -- -- -- -- -- --
2019-11-17 23:00:00 -- -- -- -- -- -- -- -- --
2019-11-17 22:00:00 -- -- -- -- -- -- -- -- --
2019-11-17 21:00:00 -- -- -- -- -- -- -- -- --
2019-11-17 20:00:00 -- -- -- -- -- -- -- -- --
2019-11-17 19:00:00 -- -- -- -- -- -- -- -- --
2019-11-17 18:00:00 -- -- -- -- -- -- -- -- --
2019-11-17 17:00:00 -- -- -- -- -- -- -- -- --
2019-11-17 16:00:00 -- -- -- -- -- -- -- -- --
2019-11-17 15:00:00 -- -- -- -- -- -- -- -- --
2019-11-17 14:00:00 -- -- -- -- -- -- -- -- --
2019-11-17 13:00:00 -- -- -- -- -- -- -- -- --
2019-11-17 12:00:00 -- -- -- -- -- -- -- -- --
2019-11-17 11:00:00 -- -- -- -- -- -- -- -- --
2019-11-17 10:00:00 -- -- -- -- -- -- -- -- --
2019-11-17 09:00:00 -- -- -- -- -- -- -- -- --
2019-11-17 08:00:00 -- -- -- -- -- -- -- -- --
2019-11-17 07:00:00 -- -- -- -- -- -- -- -- --
2019-11-17 06:00:00 -- -- -- -- -- -- -- -- --
2019-11-17 05:00:00 -- -- -- -- -- -- -- -- --
2019-11-17 04:00:00 -- -- -- -- -- -- -- -- --
2019-11-17 03:00:00 -- -- -- -- -- -- -- -- --
2019-11-17 02:00:00 -- -- -- -- -- -- -- -- --
2019-11-17 01:00:00 -- -- -- -- -- -- -- -- --
2019-11-17 00:00:00 -- -- -- -- -- -- -- -- --
2019-11-16 23:00:00 -- -- -- -- -- -- -- -- --
2019-11-16 22:00:00 -- -- -- -- -- -- -- -- --
2019-11-16 21:00:00 -- -- -- -- -- -- -- -- --
2019-11-16 20:00:00 -- -- -- -- -- -- -- -- --
2019-11-16 19:00:00 -- -- -- -- -- -- -- -- --
2019-11-16 18:00:00 -- -- -- -- -- -- -- -- --
2019-11-16 17:00:00 -- -- -- -- -- -- -- -- --
2019-11-16 16:00:00 -- -- -- -- -- -- -- -- --
2019-11-16 15:00:00 -- -- -- -- -- -- -- -- --
2019-11-16 14:00:00 -- -- -- -- -- -- -- -- --
2019-11-16 13:00:00 -- -- -- -- -- -- -- -- --
2019-11-16 12:00:00 -- -- -- -- -- -- -- -- --
2019-11-16 11:00:00 -- -- -- -- -- -- -- -- --
2019-11-16 10:00:00 -- -- -- -- -- -- -- -- --
2019-11-16 09:00:00 -- -- -- -- -- -- -- -- --
2019-11-16 08:00:00 -- -- -- -- -- -- -- -- --
2019-11-16 07:00:00 -- -- -- -- -- -- -- -- --
2019-11-16 06:00:00 -- -- -- -- -- -- -- -- --
2019-11-16 05:00:00 -- -- -- -- -- -- -- -- --
2019-11-16 04:00:00 -- -- -- -- -- -- -- -- --
2019-11-16 03:00:00 -- -- -- -- -- -- -- -- --
2019-11-16 02:00:00 -- -- -- -- -- -- -- -- --
2019-11-16 01:00:00 -- -- -- -- -- -- -- -- --
2019-11-16 00:00:00 -- -- -- -- -- -- -- -- --
2019-11-15 23:00:00 -- -- -- -- -- -- -- -- --
2019-11-15 22:00:00 -- -- -- -- -- -- -- -- --
2019-11-15 21:00:00 -- -- -- -- -- -- -- -- --
2019-11-15 20:00:00 -- -- -- -- -- -- -- -- --
2019-11-15 19:00:00 -- -- -- -- -- -- -- -- --
2019-11-15 18:00:00 -- -- -- -- -- -- -- -- --
2019-11-15 17:00:00 -- -- -- -- -- -- -- -- --
2019-11-15 16:00:00 -- -- -- -- -- -- -- -- --
2019-11-15 15:00:00 -- -- -- -- -- -- -- -- --
2019-11-15 14:00:00 -- -- -- -- -- -- -- -- --
2019-11-15 13:00:00 -- -- -- -- -- -- -- -- --
2019-11-15 12:00:00 -- -- -- -- -- -- -- -- --
2019-11-15 11:00:00 -- -- -- -- -- -- -- -- --
2019-11-15 10:00:00 -- -- -- -- -- -- -- -- --
2019-11-15 09:00:00 -- -- -- -- -- -- -- -- --
2019-11-15 08:00:00 -- -- -- -- -- -- -- -- --
2019-11-15 07:00:00 -- -- -- -- -- -- -- -- --
2019-11-15 06:00:00 -- -- -- -- -- -- -- -- --
2019-11-15 05:00:00 -- -- -- -- -- -- -- -- --
2019-11-15 04:00:00 -- -- -- -- -- -- -- -- --
2019-11-15 03:00:00 3.2 26 Oeste 40 Noroeste 2.8 -- -- 100
2019-11-15 02:00:00 3.4 5 Noroeste 21 Oeste 2.8 -- -- 100
2019-11-15 01:00:00 3.7 4 Noroeste 30 Noroeste 1 -- -- 100
2019-11-15 00:00:00 3.5 0 Calma 14 Noroeste 0.2 -- -- 100